Indian Springs, Nevada Weather observations

Data are for observation ending at time listed.
 Day   Time    Ave.   Ave.  Ave.  Vector   Max.   Stn.    Total    Solar   Ave.  
  of    of     Air    Rel.  Wind   Wind    Wind   Baro.  Precip.   Rad.    Soil  
Year   Day     Temp.  Hum.  Speed  Dir.    Gust   Pres.                    Temp. 
2015   (PST)    F      %     mph   deg.    mph     mb.     in.     W/m2     F   
------------------------------------------------------------------------------
 243    8:00   77.3    23    1.2    17      2.7   905.0    0.00     356    85.1
 243    8:10   78.5    23    1.2   321      2.6   905.2    0.00     389    85.0
 243    8:20   79.7    22    0.6   288      1.8   905.5    0.00     422    85.0
 243    8:30   80.7    21    1.3   304      2.3   905.8    0.00     457    85.0
 243    8:40   82.0    21    0.9   324      2.0   906.0    0.00     496    85.1
 243    8:50   84.1    20    0.8   348      2.0   906.2    0.00     528    85.2
 243    9:00   85.1    20    1.1    18      4.0   906.5    0.00     565    85.3
 243    9:10   84.2    21    2.0    16      3.9   906.7    0.00     602    85.5
 243    9:20   85.3    20    1.5     8      4.1   906.8    0.00     634    85.7
 243    9:30   85.4    20    1.5   360      4.9   906.9    0.00     664    85.9
 243    9:40   85.9    18    1.8    15      4.2   907.0    0.00     697    86.2
 243    9:50   86.5    18    1.6    16      4.0   907.2    0.00     723    86.5
 243   10:00   87.0    17    2.1    58      5.7   907.2    0.00     750    86.7
 243   10:10   87.7    17    2.1    67      4.7   907.4    0.00     772    87.0
 243   10:20   88.4    17    1.2   116      3.6   907.5    0.00     787    87.3
 243   10:30   89.4    16    1.5    70      5.9   907.7    0.00     809    87.7
 243   10:40   89.2    17    3.9    80      7.8   907.8    0.00     837    88.1
 243   10:50   89.8    17    2.1   116      5.6   907.8    0.00     850    88.5
 243   11:00   89.8    17    2.3   168      6.1   907.9    0.00     863    88.9
 243   11:10   90.2    17    2.2   161      6.6   907.8    0.00     877    89.3
 243   11:20   90.6    17    2.0    94      6.6   907.7    0.00     894    89.8
 243   11:30   91.6    17    3.9    82     10.4   907.6    0.00     908    90.2
 243   11:40   92.2    17    3.3   102      8.7   907.5    0.00     918    90.7
 243   11:50   92.0    17    5.8    85     10.7   907.4    0.00     935    91.1
 243   12:00   92.2    17    4.5    83      9.6   907.3    0.00     944    91.6
 243   12:10   92.9    16    3.8    85      9.8   907.2    0.00     945    92.0
 243   12:20   93.4    16    4.0   102     11.0   907.0    0.00     941    92.3
 243   12:30   93.7    15    3.9   108     12.2   906.9    0.00     949    92.6
 243   12:40   94.0    16    5.0    99     12.9   906.8    0.00     949    92.9
 243   12:50   94.5    15    4.3    82     12.0   906.8    0.00     949    93.1
 243   13:00   94.5    15    5.5   101     12.7   906.7    0.00     944    93.4
 243   13:10   94.7    15    4.2   104     12.3   906.6    0.00     944    93.7
 243   13:20   94.6    15    7.1    90     13.7   906.5    0.00     946    94.0
 243   13:30   95.3    15    4.2    95     10.5   906.4    0.00     949    94.3
 243   13:40   95.4    14    5.3    66     15.3   906.2    0.00     790    94.7
 243   13:50   95.3    14    2.5    48      9.1   906.0    0.00     852    95.0
 243   14:00   96.1    14    4.9    69     14.9   905.7    0.00     781    95.4
 243   14:10   96.8    14    3.0   117     15.0   905.6    0.00     874    95.8
 243   14:20   96.2    14    4.7    96     14.9   905.6    0.00     802    96.2
 243   14:30   95.7    15    6.3    91     19.9   905.3    0.00     731    96.6
 243   14:40   96.1    14    5.0    97     12.5   905.3    0.00     572    96.9
 243   14:50   95.4    15    6.5    88     16.4   905.1    0.00     675    97.3
 243   15:00   95.9    15    6.7    67     14.0   905.0    0.00     846    97.6
 243   15:10   96.6    14    5.0    78     12.6   904.9    0.00     448    97.9
 243   15:20   96.7    14    4.2    98     11.9   904.8    0.00     190    98.2
 243   15:30   97.0    14    3.1    91     11.1   904.7    0.00     489    98.5
 243   15:40   96.6    14    4.1    52      9.1   904.6    0.00     507    98.7
 243   15:50   95.3    15    1.7    16      4.2   904.4    0.00     130    98.9
 243   16:00   94.6    15    3.7    89     13.1   904.2    0.00     124    99.1
 243   16:10   94.6    15    4.6    34     14.7   904.0    0.00     407    99.3
 243   16:20   96.9    14    4.6    46     10.7   903.8    0.00     637    99.3
 243   16:30   96.9    14    4.3    37     10.5   903.8    0.00     560    99.4
 243   16:40   97.8    13    4.3    42     13.3   903.6    0.00     539    99.4
 243   16:50   97.6    13    4.5    79     14.5   903.4    0.00     520    99.4
 243   17:00   97.4    14    5.1   103     15.5   903.5    0.00     492    99.4
 243   17:10   97.1    14    6.0    79     14.4   903.6    0.00     434    99.5
 243   17:20   95.9    14    5.5    82     13.7   903.5    0.00     245    99.5
 243   17:30   95.3    14    5.3    69     11.8   903.4    0.00     242    99.6
 243   17:40   96.1    14    5.2    76     12.7   903.0    0.00     316    99.6
 243   17:50   95.6    13    6.7    86     15.4   903.0    0.00     273    99.7
 243   18:00   95.5    13    4.0    94     11.6   902.9    0.00     107    99.6
 243   18:10   95.4    13    4.1    84     10.0   902.8    0.00      50    99.6
 243   18:20   94.7    13    5.5    82     12.1   902.7    0.00      47    99.5
 243   18:30   94.2    13    5.2    74     11.4   902.7    0.00      40    99.4
 243   18:40   93.7    13    4.8    70     11.5   902.7    0.00      26    99.3
 243   18:50   93.3    13    2.9    65      7.7   902.5    0.00      20    99.2
 243   19:00   92.9    13    2.2   309      9.0   902.4    0.00      15    99.0
 243   19:10   92.6    12    3.8   230      8.5   902.3    0.00       9    98.9
 243   19:20   91.9    12    4.2   211      9.6   902.3    0.00       3    98.7
 243   19:30   91.5    12    3.3   205      7.3   902.4    0.00       1    98.5
 243   19:40   90.8    12    1.3   184      4.7   902.5    0.00       0    98.3
 243   19:50   90.1    12    1.2   171      3.6   902.6    0.00       0    98.1
 243   20:00   89.4    13    1.5   105      3.7   902.6    0.00       0    98.0
 243   20:10   87.5    14    0.9    67      2.8   902.7    0.00       0    97.7
 243   20:20   87.3    13    0.7   114      3.5   902.7    0.00       0    97.5
 243   20:30   87.6    13    0.8   204      4.4   902.8    0.00       0    97.3
 243   20:40   88.0    13    1.4   313      3.7   902.9    0.00       0    97.0
 243   20:50   87.0    13    0.6   117      1.4   903.0    0.00       0    96.7
 243   21:00   85.2    15    0.1    35      1.7   903.0    0.00       0    96.5
 243   21:10   84.1    15    0.0     0      0.0   903.1    0.00       0    96.3
 243   21:20   83.6    16    0.6   215      1.8   903.2    0.00       0    96.1
 243   21:30   83.6    16    1.6   302      2.9   903.0    0.00       0    95.8
 243   21:40   83.9    15    1.3   114      3.1   903.1    0.00       0    95.5
 243   21:50   83.3    15    0.7   282      1.9   903.1    0.00       0    95.3
 243   22:00   82.1    16    1.5    75      3.1   903.1    0.00       0    95.1
 243   22:10   82.5    15    0.9    50      2.2   903.1    0.00       0    94.8
 243   22:20   82.1    16    0.6   180      1.9   903.2    0.00       0    94.6
 243   22:30   82.1    15    1.1    29      3.5   903.1    0.00       0    94.4
 243   22:40   81.8    16    0.7   244      2.8   903.2    0.00       0    94.2
 243   22:50   81.7    16    0.9   231      2.2   903.1    0.00       0    93.9
 243   23:00   80.1    17    0.4   154      2.3   903.2    0.00       0    93.7
 243   23:10   79.0    19    0.0   201      0.7   903.2    0.00       0    93.5
 243   23:20   78.9    19    1.0   202      2.7   903.1    0.00       0    93.3
 243   23:30   79.0    18    0.6   240      1.4   903.1    0.00       0    93.1
 243   23:40   78.6    19    0.3   183      2.2   903.1    0.00       0    92.9
 243   23:50   77.5    20    1.0   227      2.3   903.0    0.00       0    92.6
 244    0:00   78.8    17    1.4   238      2.8   903.0    0.00       0    92.4
 244    0:10   78.8    16    2.6   246      4.4   903.0    0.00       0    92.2
 244    0:20   78.0    16    2.8   240      5.3   903.1    0.00       0    92.0
 244    0:30   77.6    16    2.1   241      3.7   903.1    0.00       0    91.8
 244    0:40   78.0    16    2.0   244      3.6   903.1    0.00       0    91.6
 244    0:50   76.9    17    0.6   225      2.3   903.1    0.00       0    91.4
 244    1:00   76.0    18    1.2   221      3.1   903.0    0.00       0    91.2
 244    1:10   76.7    17    1.6   218      2.9   903.0    0.00       0    91.0
 244    1:20   76.8    18    0.5    70      3.8   903.0    0.00       0    90.8
 244    1:30   74.5    20    0.8    65      2.2   902.9    0.00       0    90.6
 244    1:40   74.3    20    0.3   152      1.5   902.8    0.00       0    90.4
 244    1:50   73.7    21    1.0    69      3.1   902.7    0.00       0    90.3
 244    2:00   72.5    21    2.2   104      4.1   902.6    0.00       0    90.1
 244    2:10   72.9    21    0.6   147      2.3   902.6    0.00       0    89.9
 244    2:20   73.4    20    0.2   111      1.6   902.6    0.00       0    89.7
 244    2:30   74.0    20    0.9   350      3.3   902.6    0.00       0    89.5
 244    2:40   74.7    20    1.1   314      4.1   902.6    0.00       0    89.3
 244    2:50   73.2    20    2.9   256      5.8   902.5    0.00       0    89.2
 244    3:00   73.7    19    2.2   237      3.8   902.6    0.00       0    89.0
 244    3:10   73.7    19    1.2   271      3.4   902.8    0.00       0    88.8
 244    3:20   72.1    21    1.9    99      5.3   902.9    0.00       0    88.6
 244    3:30   71.0    22    0.5    34      1.3   903.0    0.00       0    88.4
 244    3:40   70.6    23    0.9   210      2.1   902.9    0.00       0    88.3
 244    3:50   71.2    23    0.4   218      1.8   902.8    0.00       0    88.1
 244    4:00   71.1    24    0.7   201      2.6   902.7    0.00       0    88.0
 244    4:10   71.7    22    0.5   237      1.7   902.7    0.00       0    87.8
 244    4:20   72.4    21    0.9   234      2.1   902.6    0.00       0    87.6
 244    4:30   69.7    25    0.8    72      2.6   902.7    0.00       0    87.5
 244    4:40   68.1    26    0.1    65      2.5   902.6    0.00       0    87.3
 244    4:50   68.7    26    1.0   269      2.5   902.6    0.00       0    87.2
 244    5:00   69.0    26    1.5   264      3.4   902.6    0.00       0    87.0
 244    5:10   69.3    23    1.1   259      2.9   902.6    0.00       0    86.8
 244    5:20   67.7    25    0.6   122      2.9   902.7    0.00       0    86.7
 244    5:30   68.1    25    1.1   228      2.0   902.6    0.00       0    86.5
 244    5:40   69.0    24    1.1   254      3.1   902.7    0.00       0    86.4
 244    5:50   67.8    26    0.4   197      1.8   902.7    0.00       0    86.2
 244    6:00   67.0    27    0.8   106      2.4   902.7    0.00       0    86.1
 244    6:10   66.3    28    0.7   212      1.9   902.8    0.00       2    85.9
 244    6:20   67.0    27    0.4   292      3.8   902.8    0.00       6    85.7
 244    6:30   67.4    26    1.3   344      3.6   902.9    0.00      14    85.6
 244    6:40   67.1    25    0.5    28      3.3   903.1    0.00      44    85.4
 244    6:50   68.6    24    0.4   253      1.8   903.2    0.00      78    85.3
 244    7:00   69.0    24    1.9   224      3.0   903.4    0.00     123    85.1
 244    7:10   70.4    23    1.1   269      2.3   903.7    0.00     160    84.9
 244    7:20   72.1    22    1.2   256      2.4   903.9    0.00     196    84.7
 244    7:30   73.4    20    1.3   221      3.0   904.2    0.00     235    84.6
 244    7:40   75.3    20    0.6   358      1.9   904.3    0.00     281    84.4
 244    7:50   77.3    19    0.8   328      2.3   904.7    0.00     316    84.3

Return to Indian Springs, Nevada graphs page.


Western Regional Climate Center,wrcc@dri.edu